Terminal Aerodrome Forecast
Issued by NWS

Home | Current Version | Previous Version | Text Only | Print | Product List | Glossary On
Versions: 1 2 3 4 5 6 7 8 9 10 11 12 13 14
419
FTUS45 KPIH 281725
TAFSUN
TAF
KSUN 281725Z 2818/2924 15008KT P6SM VCTS SCT080CB SCT120
     FM290300 33008KT P6SM FEW120
     FM291800 15009KT P6SM VCTS SCT080CB BKN120=

USA.gov is the U.S. government's official web portal to all federal, state and local government web resources and services.